Indian Stream Twp, Maine
Current Conditions -  °F | °C
As of 7:35 AM on Tuesday 27 Jan 2015 (Local Time) from KWVL Reporting Station
Overcast Overcast  
Wind Chill: -15°   Ceiling: 600
Heat Index:   Visibility: 0mi
Dew Point:   Wind: 25mph
Humidity: 72%   Direction: 20°NNE
Pressure: 29.8"   Gusts: 37mph
Location:  45.3915°N, 69.9186°W
Report Text: KWVL 271235Z 02022G32KT M1/4SM OVC006 M14/M18 A2980 RMK AO1
Loading
Personal Weather Stations






























Interactive Weather Map New forecast layout! Learn more

10-Day Weather Forecast

Advertisements
Track Severe Weather on mobile